sensor_id;sensor_type;location;lat;lon;timestamp;pressure;altitude;pressure_sealevel;temperature;humidity
49178;BME280;35016;55.674;37.468;2023-09-18T00:00:48;99593.84;;;10.91;70.64
49178;BME280;35016;55.674;37.468;2023-09-18T00:03:19;99600.13;;;10.96;70.41
49178;BME280;35016;55.674;37.468;2023-09-18T00:05:47;99602.34;;;10.99;70.85
49178;BME280;35016;55.674;37.468;2023-09-18T00:08:16;99597.47;;;11.01;70.69
49178;BME280;35016;55.674;37.468;2023-09-18T00:10:47;99607.03;;;11.09;71.15
49178;BME280;35016;55.674;37.468;2023-09-18T00:13:16;99599.44;;;11.11;70.62
49178;BME280;35016;55.674;37.468;2023-09-18T00:15:43;99597.59;;;11.16;70.65
49178;BME280;35016;55.674;37.468;2023-09-18T00:18:16;99597.31;;;11.18;70.35
49178;BME280;35016;55.674;37.468;2023-09-18T00:20:44;99593.00;;;11.22;70.13
49178;BME280;35016;55.674;37.468;2023-09-18T00:23:12;99594.09;;;11.26;70.13
49178;BME280;35016;55.674;37.468;2023-09-18T00:25:40;99598.22;;;11.29;69.94
49178;BME280;35016;55.674;37.468;2023-09-18T00:28:11;99589.81;;;11.30;70.24
49178;BME280;35016;55.674;37.468;2023-09-18T00:30:47;99602.34;;;11.36;70.07
49178;BME280;35016;55.674;37.468;2023-09-18T00:33:15;99593.13;;;11.37;69.74
49178;BME280;35016;55.674;37.468;2023-09-18T00:35:50;99597.47;;;11.38;70.56
49178;BME280;35016;55.674;37.468;2023-09-18T00:38:18;99598.28;;;11.39;69.56
49178;BME280;35016;55.674;37.468;2023-09-18T00:40:47;99599.09;;;11.39;70.07
49178;BME280;35016;55.674;37.468;2023-09-18T00:43:15;99595.31;;;11.45;69.60
49178;BME280;35016;55.674;37.468;2023-09-18T00:45:44;99592.63;;;11.51;69.68
49178;BME280;35016;55.674;37.468;2023-09-18T00:48:12;99592.66;;;11.56;69.71
49178;BME280;35016;55.674;37.468;2023-09-18T00:50:43;99588.09;;;11.61;69.44
49178;BME280;35016;55.674;37.468;2023-09-18T00:53:13;99586.22;;;11.67;69.45
49178;BME280;35016;55.674;37.468;2023-09-18T00:55:41;99592.75;;;11.71;69.73
49178;BME280;35016;55.674;37.468;2023-09-18T00:58:09;99588.41;;;11.75;69.46
49178;BME280;35016;55.674;37.468;2023-09-18T01:00:37;99603.13;;;11.79;69.54
49178;BME280;35016;55.674;37.468;2023-09-18T01:03:05;99585.50;;;11.82;69.25
49178;BME280;35016;55.674;37.468;2023-09-18T01:05:33;99583.91;;;11.86;69.24
49178;BME280;35016;55.674;37.468;2023-09-18T01:08:01;99586.09;;;11.89;69.55
49178;BME280;35016;55.674;37.468;2023-09-18T01:10:34;99591.25;;;11.90;69.20
49178;BME280;35016;55.674;37.468;2023-09-18T01:13:12;99589.38;;;11.96;69.03
49178;BME280;35016;55.674;37.468;2023-09-18T01:15:54;99588.28;;;11.97;69.37
49178;BME280;35016;55.674;37.468;2023-09-18T01:18:24;99573.34;;;11.99;68.79
49178;BME280;35016;55.674;37.468;2023-09-18T01:20:51;99565.44;;;11.98;68.52
49178;BME280;35016;55.674;37.468;2023-09-18T01:23:18;99576.31;;;11.98;68.63
49178;BME280;35016;55.674;37.468;2023-09-18T01:25:46;99571.97;;;11.97;68.65
49178;BME280;35016;55.674;37.468;2023-09-18T01:28:13;99568.72;;;11.95;68.62
49178;BME280;35016;55.674;37.468;2023-09-18T01:30:43;99559.19;;;11.92;68.88
49178;BME280;35016;55.674;37.468;2023-09-18T01:33:12;99564.63;;;11.87;68.71
49178;BME280;35016;55.674;37.468;2023-09-18T01:35:41;99566.75;;;11.85;69.00
49178;BME280;35016;55.674;37.468;2023-09-18T01:38:09;99561.59;;;11.84;68.34
49178;BME280;35016;55.674;37.468;2023-09-18T01:40:38;99572.44;;;11.84;68.81
49178;BME280;35016;55.674;37.468;2023-09-18T01:43:06;99564.84;;;11.81;68.41
49178;BME280;35016;55.674;37.468;2023-09-18T01:45:34;99558.03;;;11.78;68.66
49178;BME280;35016;55.674;37.468;2023-09-18T01:48:04;99562.63;;;11.77;68.54
49178;BME280;35016;55.674;37.468;2023-09-18T01:50:32;99555.00;;;11.74;68.99
49178;BME280;35016;55.674;37.468;2023-09-18T01:53:00;99555.28;;;11.73;69.11
49178;BME280;35016;55.674;37.468;2023-09-18T01:55:27;99554.72;;;11.71;68.78
49178;BME280;35016;55.674;37.468;2023-09-18T01:57:56;99556.63;;;11.70;68.96
49178;BME280;35016;55.674;37.468;2023-09-18T02:00:23;99553.09;;;11.70;68.72
49178;BME280;35016;55.674;37.468;2023-09-18T02:02:53;99546.84;;;11.69;68.87
49178;BME280;35016;55.674;37.468;2023-09-18T02:05:40;99549.56;;;11.69;68.80
49178;BME280;35016;55.674;37.468;2023-09-18T02:08:08;99547.91;;;11.68;68.58
49178;BME280;35016;55.674;37.468;2023-09-18T02:10:36;99538.13;;;11.67;68.95
49178;BME280;35016;55.674;37.468;2023-09-18T02:13:03;99544.38;;;11.68;69.28
49178;BME280;35016;55.674;37.468;2023-09-18T02:15:31;99536.25;;;11.68;68.77
49178;BME280;35016;55.674;37.468;2023-09-18T02:17:59;99529.16;;;11.67;69.00
49178;BME280;35016;55.674;37.468;2023-09-18T02:20:27;99532.44;;;11.69;69.16
49178;BME280;35016;55.674;37.468;2023-09-18T02:22:54;99537.59;;;11.70;69.37
49178;BME280;35016;55.674;37.468;2023-09-18T02:25:42;99533.00;;;11.71;69.32
49178;BME280;35016;55.674;37.468;2023-09-18T02:28:09;99532.44;;;11.69;69.17
49178;BME280;35016;55.674;37.468;2023-09-18T02:30:37;99524.28;;;11.69;68.71
49178;BME280;35016;55.674;37.468;2023-09-18T02:33:04;99535.69;;;11.66;68.91
49178;BME280;35016;55.674;37.468;2023-09-18T02:35:34;99535.13;;;11.64;69.25
49178;BME280;35016;55.674;37.468;2023-09-18T02:38:01;99532.97;;;11.61;69.00
49178;BME280;35016;55.674;37.468;2023-09-18T02:40:30;99528.56;;;11.55;68.95
49178;BME280;35016;55.674;37.468;2023-09-18T02:42:58;99532.88;;;11.51;69.57
49178;BME280;35016;55.674;37.468;2023-09-18T02:45:25;99529.63;;;11.48;69.06
49178;BME280;35016;55.674;37.468;2023-09-18T02:47:52;99536.13;;;11.47;69.74
49178;BME280;35016;55.674;37.468;2023-09-18T02:50:19;99534.25;;;11.48;69.26
49178;BME280;35016;55.674;37.468;2023-09-18T02:52:47;99529.63;;;11.48;69.86
49178;BME280;35016;55.674;37.468;2023-09-18T02:55:14;99529.63;;;11.48;69.61
49178;BME280;35016;55.674;37.468;2023-09-18T02:57:41;99523.13;;;11.49;69.95
49178;BME280;35016;55.674;37.468;2023-09-18T03:00:09;99522.28;;;11.49;70.05
49178;BME280;35016;55.674;37.468;2023-09-18T03:02:37;99513.34;;;11.48;69.46
49178;BME280;35016;55.674;37.468;2023-09-18T03:05:04;99518.50;;;11.50;70.03
49178;BME280;35016;55.674;37.468;2023-09-18T03:07:32;99519.56;;;11.49;69.56
49178;BME280;35016;55.674;37.468;2023-09-18T03:09:59;99522.28;;;11.49;70.17
49178;BME280;35016;55.674;37.468;2023-09-18T03:12:27;99519.84;;;11.47;70.00
49178;BME280;35016;55.674;37.468;2023-09-18T03:14:55;99516.03;;;11.48;70.15
49178;BME280;35016;55.674;37.468;2023-09-18T03:17:22;99522.28;;;11.49;69.89
49178;BME280;35016;55.674;37.468;2023-09-18T03:19:49;99526.38;;;11.52;70.12
49178;BME280;35016;55.674;37.468;2023-09-18T03:22:16;99522.31;;;11.54;70.03
49178;BME280;35016;55.674;37.468;2023-09-18T03:24:44;99519.88;;;11.53;69.72
49178;BME280;35016;55.674;37.468;2023-09-18T03:27:11;99538.66;;;11.59;69.78
49178;BME280;35016;55.674;37.468;2023-09-18T03:29:39;99527.53;;;11.61;70.40
49178;BME280;35016;55.674;37.468;2023-09-18T03:32:06;99527.53;;;11.66;70.42
49178;BME280;35016;55.674;37.468;2023-09-18T03:34:34;99532.16;;;11.70;70.14
49178;BME280;35016;55.674;37.468;2023-09-18T03:37:01;99530.00;;;11.72;69.97
49178;BME280;35016;55.674;37.468;2023-09-18T03:39:28;99531.38;;;11.75;70.05
49178;BME280;35016;55.674;37.468;2023-09-18T03:41:56;99528.38;;;11.76;69.97
49178;BME280;35016;55.674;37.468;2023-09-18T03:44:23;99528.69;;;11.80;69.83
49178;BME280;35016;55.674;37.468;2023-09-18T03:46:51;99528.16;;;11.83;70.11
49178;BME280;35016;55.674;37.468;2023-09-18T03:49:18;99528.72;;;11.85;69.76
49178;BME280;35016;55.674;37.468;2023-09-18T03:51:45;99524.66;;;11.88;70.13
49178;BME280;35016;55.674;37.468;2023-09-18T03:54:12;99519.78;;;11.90;70.06
49178;BME280;35016;55.674;37.468;2023-09-18T03:56:39;99526.31;;;11.94;69.84
49178;BME280;35016;55.674;37.468;2023-09-18T03:59:07;99527.41;;;11.98;69.98
49178;BME280;35016;55.674;37.468;2023-09-18T04:01:34;99523.06;;;12.02;70.07
49178;BME280;35016;55.674;37.468;2023-09-18T04:04:02;99521.44;;;12.06;69.92
49178;BME280;35016;55.674;37.468;2023-09-18T04:06:42;99529.91;;;12.15;69.97
49178;BME280;35016;55.674;37.468;2023-09-18T04:09:10;99520.94;;;12.19;69.99
49178;BME280;35016;55.674;37.468;2023-09-18T04:11:37;99527.19;;;12.25;69.64
49178;BME280;35016;55.674;37.468;2023-09-18T04:14:04;99530.19;;;12.28;69.70
49178;BME280;35016;55.674;37.468;2023-09-18T04:16:32;99513.59;;;12.30;69.34
49178;BME280;35016;55.674;37.468;2023-09-18T04:19:03;99520.41;;;12.37;69.34
49178;BME280;35016;55.674;37.468;2023-09-18T04:21:30;99519.59;;;12.42;69.31
49178;BME280;35016;55.674;37.468;2023-09-18T04:23:58;99517.44;;;12.44;69.54
49178;BME280;35016;55.674;37.468;2023-09-18T04:26:25;99519.06;;;12.50;69.10
49178;BME280;35016;55.674;37.468;2023-09-18T04:28:57;99511.19;;;12.54;69.16
49178;BME280;35016;55.674;37.468;2023-09-18T04:31:25;99515.78;;;12.58;69.03
49178;BME280;35016;55.674;37.468;2023-09-18T04:33:55;99513.63;;;12.65;69.04
49178;BME280;35016;55.674;37.468;2023-09-18T04:36:23;99520.94;;;12.70;68.98
49178;BME280;35016;55.674;37.468;2023-09-18T04:38:52;99517.72;;;12.73;69.02
49178;BME280;35016;55.674;37.468;2023-09-18T04:41:19;99516.88;;;12.78;68.91
49178;BME280;35016;55.674;37.468;2023-09-18T04:43:47;99506.00;;;12.83;68.94
49178;BME280;35016;55.674;37.468;2023-09-18T04:46:14;99507.06;;;12.87;68.70
49178;BME280;35016;55.674;37.468;2023-09-18T04:48:42;99510.31;;;12.94;68.96
49178;BME280;35016;55.674;37.468;2023-09-18T04:51:09;99509.22;;;13.00;68.69
49178;BME280;35016;55.674;37.468;2023-09-18T04:53:36;99503.25;;;13.03;68.67
49178;BME280;35016;55.674;37.468;2023-09-18T04:56:03;99517.38;;;13.10;68.64
49178;BME280;35016;55.674;37.468;2023-09-18T04:58:32;99504.03;;;13.14;68.58
49178;BME280;35016;55.674;37.468;2023-09-18T05:00:59;99512.75;;;13.21;68.55
49178;BME280;35016;55.674;37.468;2023-09-18T05:03:27;99509.75;;;13.27;68.43
49178;BME280;35016;55.674;37.468;2023-09-18T05:05:56;99511.38;;;13.33;68.44
49178;BME280;35016;55.674;37.468;2023-09-18T05:08:24;99517.91;;;13.38;68.20
49178;BME280;35016;55.674;37.468;2023-09-18T05:10:51;99517.59;;;13.44;67.99
49178;BME280;35016;55.674;37.468;2023-09-18T05:13:19;99517.28;;;13.51;68.00
49178;BME280;35016;55.674;37.468;2023-09-18T05:15:46;99521.63;;;13.57;68.25
49178;BME280;35016;55.674;37.468;2023-09-18T05:18:13;99519.44;;;13.64;67.75
49178;BME280;35016;55.674;37.468;2023-09-18T05:20:40;99525.16;;;13.68;67.80
49178;BME280;35016;55.674;37.468;2023-09-18T05:23:07;99532.75;;;13.71;67.58
49178;BME280;35016;55.674;37.468;2023-09-18T05:25:36;99535.50;;;13.71;67.50
49178;BME280;35016;55.674;37.468;2023-09-18T05:28:05;99528.69;;;13.68;67.41
49178;BME280;35016;55.674;37.468;2023-09-18T05:30:33;99533.56;;;13.71;67.35
49178;BME280;35016;55.674;37.468;2023-09-18T05:33:02;99537.66;;;13.74;67.22
49178;BME280;35016;55.674;37.468;2023-09-18T05:35:34;99530.81;;;13.76;67.21
49178;BME280;35016;55.674;37.468;2023-09-18T05:38:03;99535.72;;;13.79;67.01
49178;BME280;35016;55.674;37.468;2023-09-18T05:40:31;99531.31;;;13.83;67.11
49178;BME280;35016;55.674;37.468;2023-09-18T05:42:59;99531.34;;;13.88;66.89
49178;BME280;35016;55.674;37.468;2023-09-18T05:45:27;99532.94;;;13.94;66.89
49178;BME280;35016;55.674;37.468;2023-09-18T05:47:55;99539.44;;;13.99;66.63
49178;BME280;35016;55.674;37.468;2023-09-18T05:50:31;99539.41;;;14.04;66.83
49178;BME280;35016;55.674;37.468;2023-09-18T05:52:59;99538.84;;;14.07;66.70
49178;BME280;35016;55.674;37.468;2023-09-18T05:55:27;99539.91;;;14.11;66.34
49178;BME280;35016;55.674;37.468;2023-09-18T05:57:54;99536.09;;;14.17;66.50
49178;BME280;35016;55.674;37.468;2023-09-18T06:00:22;99534.66;;;14.24;66.26
49178;BME280;35016;55.674;37.468;2023-09-18T06:02:50;99532.72;;;14.30;66.43
49178;BME280;35016;55.674;37.468;2023-09-18T06:05:20;99530.75;;;14.36;66.38
49178;BME280;35016;55.674;37.468;2023-09-18T06:07:51;99528.81;;;14.41;66.23
49178;BME280;35016;55.674;37.468;2023-09-18T06:10:19;99532.63;;;14.45;66.06
49178;BME280;35016;55.674;37.468;2023-09-18T06:12:47;99524.72;;;14.49;66.10
49178;BME280;35016;55.674;37.468;2023-09-18T06:15:15;99526.78;;;14.62;66.06
49178;BME280;35016;55.674;37.468;2023-09-18T06:17:43;99528.59;;;14.72;65.76
49178;BME280;35016;55.674;37.468;2023-09-18T06:20:11;99522.56;;;14.80;65.66
49178;BME280;35016;55.674;37.468;2023-09-18T06:22:43;99517.56;;;14.87;65.44
49178;BME280;35016;55.674;37.468;2023-09-18T06:25:10;99524.84;;;14.97;65.43
49178;BME280;35016;55.674;37.468;2023-09-18T06:27:38;99528.31;;;15.07;65.35
49178;BME280;35016;55.674;37.468;2023-09-18T06:30:06;99512.63;;;15.18;65.32
49178;BME280;35016;55.674;37.468;2023-09-18T06:32:33;99518.25;;;15.27;65.10
49178;BME280;35016;55.674;37.468;2023-09-18T06:35:01;99527.47;;;15.36;64.59
49178;BME280;35016;55.674;37.468;2023-09-18T06:37:31;99524.66;;;15.41;64.58
49178;BME280;35016;55.674;37.468;2023-09-18T06:39:58;99530.66;;;15.43;64.74
49178;BME280;35016;55.674;37.468;2023-09-18T06:42:25;99538.78;;;15.48;64.30
49178;BME280;35016;55.674;37.468;2023-09-18T06:44:58;99552.41;;;15.53;64.25
49178;BME280;35016;55.674;37.468;2023-09-18T06:47:25;99543.09;;;15.54;64.24
49178;BME280;35016;55.674;37.468;2023-09-18T06:49:52;99550.78;;;15.52;64.52
49178;BME280;35016;55.674;37.468;2023-09-18T06:52:19;99528.66;;;15.48;64.52
49178;BME280;35016;55.674;37.468;2023-09-18T06:54:47;99529.72;;;15.53;64.22
49178;BME280;35016;55.674;37.468;2023-09-18T06:57:14;99532.38;;;15.63;64.22
49178;BME280;35016;55.674;37.468;2023-09-18T06:59:41;99545.91;;;15.73;64.06
49178;BME280;35016;55.674;37.468;2023-09-18T07:02:09;99549.69;;;15.77;63.47
49178;BME280;35016;55.674;37.468;2023-09-18T07:04:36;99542.00;;;15.79;63.61
49178;BME280;35016;55.674;37.468;2023-09-18T07:07:03;99542.97;;;15.88;63.61
49178;BME280;35016;55.674;37.468;2023-09-18T07:09:31;99550.69;;;16.05;63.38
49178;BME280;35016;55.674;37.468;2023-09-18T07:12:02;99543.84;;;16.26;63.03
49178;BME280;35016;55.674;37.468;2023-09-18T07:14:30;99539.47;;;16.44;62.80
49178;BME280;35016;55.674;37.468;2023-09-18T07:16:58;99551.31;;;16.58;62.27
49178;BME280;35016;55.674;37.468;2023-09-18T07:19:25;99552.13;;;16.59;61.98
49178;BME280;35016;55.674;37.468;2023-09-18T07:21:53;99554.41;;;16.52;61.98
49178;BME280;35016;55.674;37.468;2023-09-18T07:24:20;99561.56;;;16.48;62.11
49178;BME280;35016;55.674;37.468;2023-09-18T07:26:48;99566.53;;;16.46;62.19
49178;BME280;35016;55.674;37.468;2023-09-18T07:29:15;99569.88;;;16.42;62.23
49178;BME280;35016;55.674;37.468;2023-09-18T07:31:43;99563.59;;;16.42;61.98
49178;BME280;35016;55.674;37.468;2023-09-18T07:34:10;99558.63;;;16.44;62.13
49178;BME280;35016;55.674;37.468;2023-09-18T07:36:40;99562.13;;;16.50;62.07
49178;BME280;35016;55.674;37.468;2023-09-18T07:39:07;99561.22;;;16.54;61.80
49178;BME280;35016;55.674;37.468;2023-09-18T07:41:34;99558.69;;;16.58;61.91
49178;BME280;35016;55.674;37.468;2023-09-18T07:44:02;99569.56;;;16.63;61.77
49178;BME280;35016;55.674;37.468;2023-09-18T07:46:29;99570.09;;;16.65;61.75
49178;BME280;35016;55.674;37.468;2023-09-18T07:48:56;99575.28;;;16.66;61.37
49178;BME280;35016;55.674;37.468;2023-09-18T07:51:23;99567.81;;;16.72;61.29
49178;BME280;35016;55.674;37.468;2023-09-18T07:53:50;99566.03;;;16.81;61.11
49178;BME280;35016;55.674;37.468;2023-09-18T07:56:17;99569.94;;;16.94;60.87
49178;BME280;35016;55.674;37.468;2023-09-18T07:58:46;99578.91;;;17.13;60.81
49178;BME280;35016;55.674;37.468;2023-09-18T08:01:14;99586.56;;;17.30;60.11
49178;BME280;35016;55.674;37.468;2023-09-18T08:03:43;99569.75;;;17.37;60.10
49178;BME280;35016;55.674;37.468;2023-09-18T08:06:10;99577.66;;;17.38;59.78
49178;BME280;35016;55.674;37.468;2023-09-18T08:08:38;99556.09;;;17.31;59.75
49178;BME280;35016;55.674;37.468;2023-09-18T08:11:08;99568.88;;;17.22;59.84
49178;BME280;35016;55.674;37.468;2023-09-18T08:13:38;99579.53;;;17.10;60.03
49178;BME280;35016;55.674;37.468;2023-09-18T08:16:06;99588.00;;;16.95;60.20
49178;BME280;35016;55.674;37.468;2023-09-18T08:18:34;99583.00;;;16.83;60.41
49178;BME280;35016;55.674;37.468;2023-09-18T08:21:02;99588.81;;;16.77;60.53
49178;BME280;35016;55.674;37.468;2023-09-18T08:23:29;99588.59;;;16.73;60.72
49178;BME280;35016;55.674;37.468;2023-09-18T08:25:57;99586.47;;;16.70;60.72
49178;BME280;35016;55.674;37.468;2023-09-18T08:28:25;99585.13;;;16.67;60.62
49178;BME280;35016;55.674;37.468;2023-09-18T08:30:52;99579.97;;;16.66;60.71
49178;BME280;35016;55.674;37.468;2023-09-18T08:33:20;99587.88;;;16.67;60.82
49178;BME280;35016;55.674;37.468;2023-09-18T08:35:50;99578.53;;;16.68;60.79
49178;BME280;35016;55.674;37.468;2023-09-18T08:38:17;99578.16;;;16.75;60.77
49178;BME280;35016;55.674;37.468;2023-09-18T08:40:47;99574.47;;;16.85;60.75
49178;BME280;35016;55.674;37.468;2023-09-18T08:43:15;99581.31;;;17.01;60.56
49178;BME280;35016;55.674;37.468;2023-09-18T08:45:54;99583.09;;;17.24;60.25
49178;BME280;35016;55.674;37.468;2023-09-18T08:48:24;99576.75;;;17.43;59.78
49178;BME280;35016;55.674;37.468;2023-09-18T08:50:51;99569.75;;;17.50;59.60
49178;BME280;35016;55.674;37.468;2023-09-18T08:53:21;99568.72;;;17.46;59.43
49178;BME280;35016;55.674;37.468;2023-09-18T08:55:48;99568.03;;;17.41;59.37
49178;BME280;35016;55.674;37.468;2023-09-18T08:58:16;99563.13;;;17.38;59.40
49178;BME280;35016;55.674;37.468;2023-09-18T09:00:46;99567.41;;;17.44;59.59
49178;BME280;35016;55.674;37.468;2023-09-18T09:03:13;99579.59;;;17.51;59.43
49178;BME280;35016;55.674;37.468;2023-09-18T09:05:49;99574.31;;;17.55;59.14
49178;BME280;35016;55.674;37.468;2023-09-18T09:08:33;99571.88;;;17.53;59.24
49178;BME280;35016;55.674;37.468;2023-09-18T09:11:13;99570.25;;;17.39;59.37
49178;BME280;35016;55.674;37.468;2023-09-18T09:13:40;99566.47;;;17.34;59.08
49178;BME280;35016;55.674;37.468;2023-09-18T09:16:13;99587.69;;;17.29;59.51
49178;BME280;35016;55.674;37.468;2023-09-18T09:18:48;99587.88;;;17.19;59.62
49178;BME280;35016;55.674;37.468;2023-09-18T09:21:17;99591.22;;;17.16;59.75
49178;BME280;35016;55.674;37.468;2023-09-18T09:23:50;99584.72;;;17.12;59.82
49178;BME280;35016;55.674;37.468;2023-09-18T09:26:22;99581.81;;;17.03;60.22
49178;BME280;35016;55.674;37.468;2023-09-18T09:28:50;99594.19;;;17.00;60.18
49178;BME280;35016;55.674;37.468;2023-09-18T09:31:26;99591.53;;;16.95;60.23
49178;BME280;35016;55.674;37.468;2023-09-18T09:33:56;99595.78;;;16.88;60.28
49178;BME280;35016;55.674;37.468;2023-09-18T09:36:24;99601.34;;;16.83;60.38
49178;BME280;35016;55.674;37.468;2023-09-18T09:38:58;99601.44;;;16.78;60.68
49178;BME280;35016;55.674;37.468;2023-09-18T09:41:31;99588.00;;;16.76;60.77
49178;BME280;35016;55.674;37.468;2023-09-18T09:44:01;99563.16;;;16.72;60.85
49178;BME280;35016;55.674;37.468;2023-09-18T09:46:28;99580.97;;;16.89;60.86
49178;BME280;35016;55.674;37.468;2023-09-18T09:51:26;99577.25;;;16.98;60.75
49178;BME280;35016;55.674;37.468;2023-09-18T09:53:53;99585.63;;;17.07;60.53
49178;BME280;35016;55.674;37.468;2023-09-18T09:56:21;99583.81;;;17.16;60.60
49178;BME280;35016;55.674;37.468;2023-09-18T09:59:02;99580.06;;;17.26;60.77
49178;BME280;35016;55.674;37.468;2023-09-18T10:01:31;99582.69;;;17.31;60.31
49178;BME280;35016;55.674;37.468;2023-09-18T10:03:59;99584.56;;;17.36;60.30
49178;BME280;35016;55.674;37.468;2023-09-18T10:06:27;99580.41;;;17.38;60.25
49178;BME280;35016;55.674;37.468;2023-09-18T10:08:57;99578.47;;;17.39;60.29
49178;BME280;35016;55.674;37.468;2023-09-18T10:11:26;99582.03;;;17.39;60.37
49178;BME280;35016;55.674;37.468;2023-09-18T10:14:04;99587.50;;;17.39;60.56
49178;BME280;35016;55.674;37.468;2023-09-18T10:16:35;99583.97;;;17.39;60.56
49178;BME280;35016;55.674;37.468;2023-09-18T10:19:32;99586.91;;;17.42;60.40
49178;BME280;35016;55.674;37.468;2023-09-18T10:22:35;99584.47;;;17.41;60.58
49178;BME280;35016;55.674;37.468;2023-09-18T10:25:15;99583.03;;;17.43;60.77
49178;BME280;35016;55.674;37.468;2023-09-18T10:27:49;99582.53;;;17.55;60.67
49178;BME280;35016;55.674;37.468;2023-09-18T10:30:20;99583.41;;;17.69;60.32
49178;BME280;35016;55.674;37.468;2023-09-18T10:32:52;99579.03;;;17.82;60.14
49178;BME280;35016;55.674;37.468;2023-09-18T10:35:20;99586.47;;;17.95;59.91
49178;BME280;35016;55.674;37.468;2023-09-18T10:37:48;99577.69;;;18.07;59.72
49178;BME280;35016;55.674;37.468;2023-09-18T10:40:18;99572.78;;;18.17;59.63
49178;BME280;35016;55.674;37.468;2023-09-18T10:42:54;99586.00;;;18.29;59.48
49178;BME280;35016;55.674;37.468;2023-09-18T10:45:24;99580.78;;;18.41;59.20
49178;BME280;35016;55.674;37.468;2023-09-18T10:47:52;99588.69;;;18.56;59.08
49178;BME280;35016;55.674;37.468;2023-09-18T10:50:24;99586.72;;;18.71;58.52
49178;BME280;35016;55.674;37.468;2023-09-18T10:52:52;99573.06;;;18.79;58.36
49178;BME280;35016;55.674;37.468;2023-09-18T10:55:21;99578.50;;;18.93;58.07
49178;BME280;35016;55.674;37.468;2023-09-18T10:57:56;99572.91;;;19.07;57.94
49178;BME280;35016;55.674;37.468;2023-09-18T11:00:25;99571.59;;;19.27;57.65
49178;BME280;35016;55.674;37.468;2023-09-18T11:03:10;99571.22;;;19.50;56.76
49178;BME280;35016;55.674;37.468;2023-09-18T11:05:40;99569.16;;;19.56;56.89
49178;BME280;35016;55.674;37.468;2023-09-18T11:08:25;99573.78;;;19.69;56.39
49178;BME280;35016;55.674;37.468;2023-09-18T11:11:00;99573.63;;;19.74;56.34
49178;BME280;35016;55.674;37.468;2023-09-18T11:13:52;99569.47;;;19.94;55.65
49178;BME280;35016;55.674;37.468;2023-09-18T11:21:26;99564.19;;;20.24;54.71
49178;BME280;35016;55.674;37.468;2023-09-18T11:24:08;99569.34;;;20.17;54.62
49178;BME280;35016;55.674;37.468;2023-09-18T11:26:42;99565.47;;;20.09;54.88
49178;BME280;35016;55.674;37.468;2023-09-18T11:29:14;99570.81;;;20.05;54.91
49178;BME280;35016;55.674;37.468;2023-09-18T11:34:15;99579.97;;;19.84;55.14
49178;BME280;35016;55.674;37.468;2023-09-18T11:36:42;99579.31;;;19.78;55.40
49178;BME280;35016;55.674;37.468;2023-09-18T11:39:10;99573.13;;;19.72;55.36
49178;BME280;35016;55.674;37.468;2023-09-18T11:41:39;99576.31;;;19.66;55.39
49178;BME280;35016;55.674;37.468;2023-09-18T11:46:48;99574.28;;;19.49;55.78
49178;BME280;35016;55.674;37.468;2023-09-18T11:49:22;99578.25;;;19.34;55.83
49178;BME280;35016;55.674;37.468;2023-09-18T11:51:50;99576.72;;;19.19;56.12
49178;BME280;35016;55.674;37.468;2023-09-18T11:54:18;99577.59;;;19.06;56.42
49178;BME280;35016;55.674;37.468;2023-09-18T11:56:45;99579.47;;;18.97;56.45
49178;BME280;35016;55.674;37.468;2023-09-18T11:59:13;99581.88;;;18.90;56.67
49178;BME280;35016;55.674;37.468;2023-09-18T12:01:40;99578.94;;;18.86;56.82
49178;BME280;35016;55.674;37.468;2023-09-18T12:04:07;99586.75;;;18.93;56.77
49178;BME280;35016;55.674;37.468;2023-09-18T12:06:36;99585.28;;;19.18;56.57
49178;BME280;35016;55.674;37.468;2023-09-18T12:09:03;99589.88;;;19.31;56.28
49178;BME280;35016;55.674;37.468;2023-09-18T12:11:32;99593.91;;;19.25;56.20
49178;BME280;35016;55.674;37.468;2023-09-18T12:14:02;99581.88;;;19.12;56.46
49178;BME280;35016;55.674;37.468;2023-09-18T12:16:37;99585.16;;;19.01;56.93
49178;BME280;35016;55.674;37.468;2023-09-18T12:19:06;99594.59;;;18.86;57.09
49178;BME280;35016;55.674;37.468;2023-09-18T12:21:41;99593.03;;;18.71;57.43
49178;BME280;35016;55.674;37.468;2023-09-18T12:24:21;99599.34;;;18.58;57.81
49178;BME280;35016;55.674;37.468;2023-09-18T12:26:50;99599.16;;;18.54;57.66
49178;BME280;35016;55.674;37.468;2023-09-18T12:29:19;99588.81;;;18.51;57.95
49178;BME280;35016;55.674;37.468;2023-09-18T12:31:47;99589.41;;;18.48;58.00
49178;BME280;35016;55.674;37.468;2023-09-18T12:34:20;99595.31;;;18.42;58.35
49178;BME280;35016;55.674;37.468;2023-09-18T12:36:50;99591.25;;;18.39;58.13
49178;BME280;35016;55.674;37.468;2023-09-18T12:39:18;99588.09;;;18.46;58.20
49178;BME280;35016;55.674;37.468;2023-09-18T12:41:46;99590.94;;;18.54;58.16
49178;BME280;35016;55.674;37.468;2023-09-18T12:44:14;99595.31;;;18.55;58.10
49178;BME280;35016;55.674;37.468;2023-09-18T12:46:45;99594.28;;;18.51;58.12
49178;BME280;35016;55.674;37.468;2023-09-18T12:49:23;99599.53;;;18.62;58.33
49178;BME280;35016;55.674;37.468;2023-09-18T12:54:43;99585.69;;;19.56;56.96
49178;BME280;35016;55.674;37.468;2023-09-18T12:57:21;99580.56;;;19.41;56.99
49178;BME280;35016;55.674;37.468;2023-09-18T12:59:48;99585.28;;;19.18;57.17
49178;BME280;35016;55.674;37.468;2023-09-18T13:02:21;99584.34;;;19.00;57.32
49178;BME280;35016;55.674;37.468;2023-09-18T13:04:56;99596.06;;;18.83;57.65
49178;BME280;35016;55.674;37.468;2023-09-18T13:07:24;99586.84;;;18.66;57.75
49178;BME280;35016;55.674;37.468;2023-09-18T13:10:02;99584.31;;;18.55;58.02
49178;BME280;35016;55.674;37.468;2023-09-18T13:15:08;99596.25;;;18.37;58.14
49178;BME280;35016;55.674;37.468;2023-09-18T13:17:44;99592.13;;;18.26;58.21
49178;BME280;35016;55.674;37.468;2023-09-18T13:20:20;99589.56;;;18.16;58.60